createdAt,value
2022-08-03T00:00:43.501Z,46.53
2022-08-03T00:03:16.896Z,46.33
2022-08-03T00:06:04.419Z,46.03
2022-08-03T00:08:37.717Z,45.97
2022-08-03T00:11:09.764Z,45.94
2022-08-03T00:13:38.324Z,45.69
2022-08-03T00:16:07.724Z,46.02
2022-08-03T00:18:38.456Z,45.78
2022-08-03T00:21:07.517Z,46.04
2022-08-03T00:23:52.357Z,45.99
2022-08-03T00:26:22.153Z,45.82
2022-08-03T00:28:51.217Z,45.74
2022-08-03T00:31:23.061Z,45.95
2022-08-03T00:34:09.925Z,46.01
2022-08-03T00:36:39.252Z,45.85
2022-08-03T00:39:08.286Z,46.10
2022-08-03T00:41:37.488Z,45.90
2022-08-03T00:44:07.196Z,46.16
2022-08-03T00:46:36.504Z,46.10
2022-08-03T00:49:04.555Z,45.95
2022-08-03T00:51:34.611Z,45.81
2022-08-03T00:54:04.194Z,46.02
2022-08-03T00:56:33.270Z,45.95
2022-08-03T00:59:02.698Z,46.20
2022-08-03T01:01:32.383Z,45.98
2022-08-03T01:04:02.324Z,46.11
2022-08-03T01:06:35.492Z,46.01
2022-08-03T01:09:08.008Z,46.15
2022-08-03T01:12:00.106Z,46.01
2022-08-03T01:14:32.978Z,45.82
2022-08-03T01:17:05.092Z,46.21
2022-08-03T01:19:41.754Z,46.28
2022-08-03T01:22:24.933Z,46.06
2022-08-03T01:24:57.966Z,46.23
2022-08-03T01:27:30.466Z,46.27
2022-08-03T01:30:08.388Z,46.40
2022-08-03T01:33:01.026Z,46.27
2022-08-03T01:35:32.808Z,46.19
2022-08-03T01:38:08.434Z,46.65
2022-08-03T01:40:36.488Z,46.80
2022-08-03T01:43:05.653Z,46.88
2022-08-03T01:45:36.105Z,46.74
2022-08-03T01:48:05.681Z,47.10
2022-08-03T01:50:34.675Z,47.08
2022-08-03T01:53:03.947Z,47.07
2022-08-03T01:55:33.348Z,47.16
2022-08-03T01:58:05.937Z,47.07
2022-08-03T02:00:38.312Z,47.26
2022-08-03T02:03:07.491Z,47.35
2022-08-03T02:05:36.870Z,47.33
2022-08-03T02:08:08.291Z,47.46
2022-08-03T02:10:37.414Z,47.62
2022-08-03T02:13:07.642Z,47.65
2022-08-03T02:15:38.593Z,47.62
2022-08-03T02:18:08.787Z,47.75
2022-08-03T02:20:39.066Z,47.85
2022-08-03T02:23:08.555Z,47.95
2022-08-03T02:25:42.400Z,48.34
2022-08-03T02:28:12.726Z,48.18
2022-08-03T02:30:44.301Z,48.20
2022-08-03T02:33:20.909Z,48.41
2022-08-03T02:35:50.307Z,48.70
2022-08-03T02:38:20.977Z,49.15
2022-08-03T02:40:50.246Z,48.97
2022-08-03T02:43:19.247Z,49.24
2022-08-03T02:45:51.106Z,49.43
2022-08-03T02:48:22.882Z,49.70
2022-08-03T02:50:53.351Z,50.54
2022-08-03T02:53:22.678Z,50.36
2022-08-03T02:55:50.642Z,50.85
2022-08-03T02:58:21.302Z,51.25
2022-08-03T03:00:51.787Z,51.41
2022-08-03T03:03:19.863Z,51.76
2022-08-03T03:05:54.682Z,51.43
2022-08-03T03:08:27.457Z,51.97
2022-08-03T03:10:58.625Z,51.57
2022-08-03T03:13:28.661Z,51.66
2022-08-03T03:16:02.887Z,51.79
2022-08-03T03:18:34.968Z,51.71
2022-08-03T03:21:05.129Z,51.91
2022-08-03T03:23:34.645Z,51.86
2022-08-03T03:26:06.381Z,51.85
2022-08-03T03:28:43.877Z,51.95
2022-08-03T03:31:14.651Z,51.90
2022-08-03T03:33:43.634Z,52.07
2022-08-03T03:36:14.626Z,52.56
2022-08-03T03:38:43.935Z,53.05
2022-08-03T03:41:13.348Z,53.84
2022-08-03T03:43:42.730Z,52.97
2022-08-03T03:46:14.830Z,53.05
2022-08-03T03:48:44.118Z,54.01
2022-08-03T03:51:13.174Z,53.73
2022-08-03T03:53:43.623Z,53.89
2022-08-03T03:56:11.652Z,53.29
2022-08-03T03:58:44.241Z,54.45
2022-08-03T04:01:15.670Z,54.07
2022-08-03T04:03:45.120Z,54.05
2022-08-03T04:06:31.878Z,54.56
2022-08-03T04:09:15.769Z,54.18
2022-08-03T04:11:47.017Z,53.54
2022-08-03T04:14:17.877Z,54.02
2022-08-03T04:16:51.544Z,54.73
2022-08-03T04:19:29.486Z,55.41
2022-08-03T04:22:01.522Z,54.82
2022-08-03T04:24:34.212Z,54.72
2022-08-03T04:27:02.660Z,55.30
2022-08-03T04:29:32.128Z,55.18
2022-08-03T04:32:03.305Z,55.37
2022-08-03T04:34:32.573Z,55.09
2022-08-03T04:37:05.570Z,55.45
2022-08-03T04:39:34.592Z,56.11
2022-08-03T04:42:07.931Z,55.44
2022-08-03T04:44:41.776Z,55.25
2022-08-03T04:47:12.378Z,54.93
2022-08-03T04:49:44.018Z,55.01
2022-08-03T04:52:15.504Z,54.92
2022-08-03T04:54:50.090Z,55.09
2022-08-03T04:57:22.989Z,54.91
2022-08-03T05:00:02.147Z,54.75
2022-08-03T05:02:41.815Z,55.32
2022-08-03T05:05:16.041Z,55.04
2022-08-03T05:07:50.704Z,55.08
2022-08-03T05:10:20.666Z,55.72
2022-08-03T05:12:52.221Z,55.70
2022-08-03T05:15:22.673Z,55.58
2022-08-03T05:17:57.057Z,55.80
2022-08-03T05:20:28.008Z,55.43
2022-08-03T05:22:56.018Z,55.33
2022-08-03T05:25:27.349Z,55.56
2022-08-03T05:27:55.461Z,56.04
2022-08-03T05:30:29.721Z,55.32
2022-08-03T05:33:03.759Z,56.16
2022-08-03T05:35:56.072Z,56.64
2022-08-03T05:38:20.862Z,56.55
2022-08-03T05:40:57.602Z,56.18
2022-08-03T05:43:44.978Z,56.65
2022-08-03T05:46:13.341Z,56.02
2022-08-03T05:48:42.922Z,55.83
2022-08-03T05:51:12.583Z,55.66
2022-08-03T05:53:40.849Z,55.53
2022-08-03T05:56:14.530Z,55.56
2022-08-03T05:58:44.654Z,55.63
2022-08-03T06:01:12.706Z,55.41
2022-08-03T06:03:42.411Z,55.92
2022-08-03T06:06:11.618Z,56.51
2022-08-03T06:08:39.884Z,56.68
2022-08-03T06:11:07.891Z,55.99
2022-08-03T06:13:35.875Z,55.59
2022-08-03T06:16:03.910Z,55.79
2022-08-03T06:18:31.953Z,56.06
2022-08-03T06:21:14.453Z,55.44
2022-08-03T06:23:54.178Z,55.53
2022-08-03T06:26:24.726Z,55.42
2022-08-03T06:28:54.224Z,55.08
2022-08-03T06:31:24.198Z,55.42
2022-08-03T06:34:32.989Z,55.87
2022-08-03T06:36:48.561Z,55.44
2022-08-03T06:39:17.581Z,55.46
2022-08-03T06:41:46.652Z,55.43
2022-08-03T06:44:16.072Z,55.36
2022-08-03T06:46:45.791Z,55.38
2022-08-03T06:49:13.868Z,55.47
2022-08-03T06:52:03.405Z,55.81
2022-08-03T06:54:33.329Z,56.25
2022-08-03T06:57:02.556Z,56.11
2022-08-03T07:00:09.451Z,55.61
2022-08-03T07:02:21.290Z,55.59
2022-08-03T07:04:50.532Z,55.01
2022-08-03T07:07:21.012Z,54.76
2022-08-03T07:09:57.317Z,54.66
2022-08-03T07:12:28.428Z,54.63
2022-08-03T07:15:00.762Z,54.52
2022-08-03T07:17:32.110Z,54.57
2022-08-03T07:20:01.841Z,54.73
2022-08-03T07:22:32.353Z,54.30
2022-08-03T07:25:01.484Z,53.91
2022-08-03T07:27:30.368Z,53.45
2022-08-03T07:30:01.851Z,52.93
2022-08-03T07:32:31.668Z,52.60
2022-08-03T07:35:01.777Z,52.42
2022-08-03T07:37:36.218Z,52.13
2022-08-03T07:40:08.629Z,51.96
2022-08-03T07:42:37.709Z,52.20
2022-08-03T07:45:08.268Z,52.33
2022-08-03T07:47:53.733Z,52.58
2022-08-03T07:50:26.164Z,52.61
2022-08-03T07:52:57.948Z,52.53
2022-08-03T07:55:28.076Z,52.37
2022-08-03T07:58:09.792Z,52.84
2022-08-03T08:00:39.124Z,52.69
2022-08-03T08:03:08.173Z,52.74
2022-08-03T08:05:37.992Z,52.44
2022-08-03T08:08:08.463Z,52.48
2022-08-03T08:10:40.258Z,52.18
2022-08-03T08:13:11.981Z,53.03
2022-08-03T08:15:42.885Z,52.72
2022-08-03T08:18:15.663Z,53.01
2022-08-03T08:20:45.145Z,52.56
2022-08-03T08:23:42.050Z,51.78
2022-08-03T08:26:04.927Z,51.91
2022-08-03T08:28:34.376Z,51.78
2022-08-03T08:31:03.750Z,51.88
2022-08-03T08:34:02.715Z,51.65
2022-08-03T08:36:24.184Z,51.83
2022-08-03T08:38:53.786Z,51.93
2022-08-03T08:41:22.984Z,51.63
2022-08-03T08:43:55.502Z,50.75
2022-08-03T08:46:29.180Z,50.61
2022-08-03T08:48:58.757Z,50.64
2022-08-03T08:51:50.953Z,51.25
2022-08-03T08:54:22.287Z,50.86
2022-08-03T08:56:52.304Z,51.07
2022-08-03T08:59:21.870Z,50.71
2022-08-03T09:01:51.119Z,50.69
2022-08-03T09:04:20.529Z,50.34
2022-08-03T09:07:10.443Z,50.32
2022-08-03T09:10:11.513Z,50.65
2022-08-03T09:12:41.621Z,50.13
2022-08-03T09:15:24.738Z,50.67
2022-08-03T09:17:56.333Z,50.39
2022-08-03T09:20:26.897Z,50.22
2022-08-03T09:22:57.972Z,50.32
2022-08-03T09:25:33.414Z,50.34
2022-08-03T09:28:10.864Z,50.04
2022-08-03T09:30:41.411Z,50.08
2022-08-03T09:33:11.068Z,50.05
2022-08-03T09:35:57.496Z,50.04
2022-08-03T09:38:27.582Z,50.09
2022-08-03T09:41:00.792Z,50.04
2022-08-03T09:43:30.351Z,50.29
2022-08-03T09:46:08.489Z,49.96
2022-08-03T09:48:37.940Z,50.18
2022-08-03T09:51:14.496Z,50.12
2022-08-03T09:54:01.803Z,50.09
2022-08-03T09:56:47.454Z,50.37
2022-08-03T09:59:26.024Z,49.88
2022-08-03T10:01:58.180Z,49.81
2022-08-03T10:04:27.436Z,49.90
2022-08-03T10:07:09.338Z,49.51
2022-08-03T10:09:38.561Z,49.38
2022-08-03T10:12:14.804Z,49.27
2022-08-03T10:14:45.871Z,49.21
2022-08-03T10:17:15.262Z,49.05
2022-08-03T10:19:43.426Z,48.96
2022-08-03T10:22:15.173Z,48.88
2022-08-03T10:24:49.869Z,48.74
2022-08-03T10:27:23.293Z,48.83
2022-08-03T10:29:53.892Z,50.24
2022-08-03T10:32:26.040Z,50.08
2022-08-03T10:34:59.913Z,50.01
2022-08-03T10:37:31.718Z,49.41
2022-08-03T10:40:01.940Z,49.68
2022-08-03T10:42:32.516Z,53.31
2022-08-03T10:45:07.916Z,53.79
2022-08-03T10:47:37.115Z,51.71
2022-08-03T10:50:07.576Z,52.47
2022-08-03T10:52:41.333Z,51.11
2022-08-03T10:55:50.394Z,51.04
2022-08-03T10:58:57.956Z,53.57
2022-08-03T11:01:59.236Z,51.68
2022-08-03T11:04:30.814Z,51.78
2022-08-03T11:07:23.785Z,51.94
2022-08-03T11:09:53.546Z,50.98
2022-08-03T11:12:29.867Z,50.75
2022-08-03T11:15:02.464Z,51.46
2022-08-03T11:17:30.490Z,51.09
2022-08-03T11:20:04.789Z,51.48
2022-08-03T11:22:54.585Z,53.37
2022-08-03T11:25:53.393Z,50.91
2022-08-03T11:28:30.675Z,50.57
2022-08-03T11:31:48.738Z,51.06
2022-08-03T11:34:17.319Z,51.00
2022-08-03T11:37:23.321Z,53.64
2022-08-03T11:39:57.785Z,52.44
2022-08-03T11:42:50.734Z,52.03
2022-08-03T11:45:20.170Z,52.17
2022-08-03T11:47:51.594Z,52.56
2022-08-03T11:50:20.260Z,51.68
2022-08-03T11:52:50.046Z,52.09
2022-08-03T11:55:20.516Z,51.37
2022-08-03T11:59:10.623Z,51.04
2022-08-03T12:00:38.873Z,51.45
2022-08-03T12:03:11.160Z,50.75
2022-08-03T12:05:51.262Z,51.92
2022-08-03T12:08:32.201Z,51.86
2022-08-03T12:11:02.426Z,51.35
2022-08-03T12:14:08.891Z,51.44
2022-08-03T12:16:28.859Z,51.44
2022-08-03T12:19:00.224Z,52.21
2022-08-03T12:21:29.674Z,52.50
2022-08-03T12:24:00.376Z,51.82
2022-08-03T12:26:29.938Z,51.05
2022-08-03T12:28:59.260Z,52.50
2022-08-03T12:31:27.441Z,52.00
2022-08-03T12:34:04.407Z,52.76
2022-08-03T12:36:35.436Z,51.26
2022-08-03T12:39:05.700Z,51.49
2022-08-03T12:41:36.033Z,51.32
2022-08-03T12:44:04.611Z,50.77
2022-08-03T12:46:34.757Z,51.04
2022-08-03T12:49:08.453Z,52.49
2022-08-03T12:51:38.446Z,50.64
2022-08-03T12:54:10.453Z,51.13
2022-08-03T12:57:00.922Z,51.58
2022-08-03T12:59:35.337Z,50.62
2022-08-03T13:02:16.504Z,50.68
2022-08-03T13:04:49.030Z,51.07
2022-08-03T13:07:19.544Z,50.90
2022-08-03T13:09:50.601Z,50.32
2022-08-03T13:12:20.984Z,50.23
2022-08-03T13:14:51.916Z,50.67
2022-08-03T13:17:21.730Z,50.34
2022-08-03T13:19:53.365Z,49.56
2022-08-03T13:22:22.175Z,50.48
2022-08-03T13:24:52.829Z,49.46
2022-08-03T13:28:02.086Z,49.13
2022-08-03T13:30:11.616Z,50.12
2022-08-03T13:32:41.117Z,49.28
2022-08-03T13:35:12.443Z,49.01
2022-08-03T13:37:48.950Z,49.60
2022-08-03T13:40:18.858Z,49.27
2022-08-03T13:42:52.538Z,49.80
2022-08-03T13:45:27.552Z,49.17
2022-08-03T13:47:56.636Z,50.30
2022-08-03T13:50:27.135Z,49.72
2022-08-03T13:52:56.606Z,48.86
2022-08-03T13:55:25.834Z,49.52
2022-08-03T13:58:03.232Z,48.99
2022-08-03T14:00:36.145Z,49.89
2022-08-03T14:03:14.170Z,49.51
2022-08-03T14:05:47.840Z,49.32
2022-08-03T14:08:17.381Z,49.30
2022-08-03T14:10:46.666Z,48.80
2022-08-03T14:13:17.655Z,49.42
2022-08-03T14:15:51.385Z,49.25
2022-08-03T14:18:27.774Z,48.11
2022-08-03T14:21:04.989Z,47.92
2022-08-03T14:23:35.104Z,47.99
2022-08-03T14:26:04.315Z,47.90
2022-08-03T14:28:33.532Z,47.93
2022-08-03T14:31:02.958Z,47.35
2022-08-03T14:33:30.980Z,48.65
2022-08-03T14:36:01.596Z,47.60
2022-08-03T14:38:33.361Z,48.13
2022-08-03T14:41:02.518Z,47.79
2022-08-03T14:43:33.859Z,47.76
2022-08-03T14:46:02.224Z,47.61
2022-08-03T14:50:32.448Z,47.68
2022-08-03T14:51:21.815Z,47.05
2022-08-03T14:53:51.326Z,46.82
2022-08-03T14:56:20.964Z,46.79
2022-08-03T14:58:52.468Z,46.63
2022-08-03T15:02:06.455Z,47.00
2022-08-03T15:04:10.946Z,46.48
2022-08-03T15:06:41.743Z,46.48
2022-08-03T15:09:23.715Z,46.23
2022-08-03T15:11:53.771Z,46.41
2022-08-03T15:14:32.337Z,46.32
2022-08-03T15:17:03.207Z,45.99
2022-08-03T15:20:00.425Z,45.86
2022-08-03T15:22:25.401Z,45.60
2022-08-03T15:26:01.649Z,45.49
2022-08-03T15:28:02.918Z,46.03
2022-08-03T15:30:36.939Z,45.54
2022-08-03T15:33:06.361Z,45.72
2022-08-03T15:35:35.694Z,45.67
2022-08-03T15:38:09.706Z,45.72
2022-08-03T15:40:39.172Z,45.21
2022-08-03T15:43:08.331Z,45.56
2022-08-03T15:45:37.568Z,45.31
2022-08-03T15:48:07.327Z,45.07
2022-08-03T15:50:38.060Z,45.20
2022-08-03T15:53:08.769Z,45.33
2022-08-03T15:55:38.116Z,45.13
2022-08-03T15:58:59.647Z,44.83
2022-08-03T16:01:01.006Z,44.84
2022-08-03T16:03:34.228Z,44.94
2022-08-03T16:06:03.858Z,44.92
2022-08-03T16:08:33.278Z,44.82
2022-08-03T16:11:01.411Z,44.31
2022-08-03T16:14:13.514Z,44.47
2022-08-03T16:16:18.110Z,44.56
2022-08-03T16:18:47.542Z,44.71
2022-08-03T16:21:19.291Z,44.57
2022-08-03T16:23:56.190Z,44.55
2022-08-03T16:26:25.224Z,44.41
2022-08-03T16:28:57.375Z,44.53
2022-08-03T16:31:28.746Z,44.13
2022-08-03T16:33:57.956Z,44.50
2022-08-03T16:36:27.689Z,44.43
2022-08-03T16:39:05.503Z,44.47
2022-08-03T16:41:54.347Z,44.20
2022-08-03T16:44:22.795Z,44.45
2022-08-03T16:46:51.992Z,44.23
2022-08-03T16:49:53.638Z,44.29
2022-08-03T16:52:13.016Z,44.29
2022-08-03T16:54:43.788Z,44.28
2022-08-03T16:57:56.407Z,43.96
2022-08-03T17:00:10.226Z,44.18
2022-08-03T17:02:39.763Z,43.53
2022-08-03T17:05:17.610Z,43.79
2022-08-03T17:07:54.507Z,43.43
2022-08-03T17:10:27.490Z,43.85
2022-08-03T17:12:57.378Z,43.54
2022-08-03T17:15:37.949Z,44.14
2022-08-03T17:18:17.821Z,43.79
2022-08-03T17:20:51.532Z,43.90
2022-08-03T17:23:34.623Z,43.64
2022-08-03T17:26:11.587Z,43.89
2022-08-03T17:28:58.203Z,43.44
2022-08-03T17:31:31.497Z,43.29
2022-08-03T17:34:02.146Z,43.86
2022-08-03T17:37:02.187Z,43.52
2022-08-03T17:39:36.186Z,43.69
2022-08-03T17:42:29.674Z,44.01
2022-08-03T17:45:07.219Z,45.20
2022-08-03T17:47:42.578Z,44.92
2022-08-03T17:50:25.788Z,44.44
2022-08-03T17:53:15.533Z,45.10
2022-08-03T17:56:04.393Z,45.12
2022-08-03T17:58:41.311Z,44.85
2022-08-03T18:02:03.250Z,44.73
2022-08-03T18:04:29.631Z,46.46
2022-08-03T18:07:11.237Z,45.61
2022-08-03T18:10:04.772Z,45.54
2022-08-03T18:12:39.436Z,45.03
2022-08-03T18:15:21.450Z,44.49
2022-08-03T18:17:55.873Z,45.04
2022-08-03T18:20:31.220Z,44.50
2022-08-03T18:23:05.606Z,45.22
2022-08-03T18:25:45.412Z,45.23
2022-08-03T18:28:19.566Z,45.07
2022-08-03T18:30:56.060Z,45.10
2022-08-03T18:34:16.307Z,44.80
2022-08-03T18:36:21.633Z,45.58
2022-08-03T18:38:58.492Z,45.27
2022-08-03T18:41:32.921Z,45.76
2022-08-03T18:44:08.747Z,46.18
2022-08-03T18:47:04.480Z,45.52
2022-08-03T18:49:41.777Z,45.98
2022-08-03T18:52:14.880Z,45.84
2022-08-03T18:55:02.839Z,46.45
2022-08-03T18:57:42.715Z,45.84
2022-08-03T19:00:15.884Z,46.72
2022-08-03T19:02:58.751Z,47.45
2022-08-03T19:05:51.623Z,45.63
2022-08-03T19:08:18.306Z,45.63
2022-08-03T19:11:03.845Z,46.97
2022-08-03T19:13:40.444Z,45.58
2022-08-03T19:16:15.799Z,46.40
2022-08-03T19:18:49.251Z,46.33
2022-08-03T19:21:18.801Z,45.71
2022-08-03T19:23:48.540Z,46.08
2022-08-03T19:26:31.179Z,46.25
2022-08-03T19:29:00.796Z,46.11
2022-08-03T19:31:30.949Z,46.66
2022-08-03T19:34:09.778Z,46.16
2022-08-03T19:36:43.697Z,46.03
2022-08-03T19:39:14.366Z,46.19
2022-08-03T19:41:51.371Z,46.71
2022-08-03T19:44:28.611Z,47.14
2022-08-03T19:47:01.918Z,45.94
2022-08-03T19:50:04.763Z,47.08
2022-08-03T19:52:31.315Z,46.06
2022-08-03T19:55:00.925Z,46.05
2022-08-03T19:57:30.082Z,45.89
2022-08-03T19:59:59.938Z,46.10
2022-08-03T20:02:34.282Z,46.13
2022-08-03T20:05:04.909Z,46.21
2022-08-03T20:07:47.578Z,45.84
2022-08-03T20:10:17.776Z,46.44
2022-08-03T20:12:47.313Z,46.73
2022-08-03T20:15:22.253Z,46.80
2022-08-03T20:18:00.386Z,47.12
2022-08-03T20:20:33.351Z,47.66
2022-08-03T20:23:12.470Z,47.31
2022-08-03T20:25:57.010Z,47.47
2022-08-03T20:28:27.834Z,46.68
2022-08-03T20:30:59.804Z,47.02
2022-08-03T20:33:46.762Z,45.71
2022-08-03T20:36:22.450Z,45.69
2022-08-03T20:38:57.701Z,45.15
2022-08-03T20:41:30.751Z,45.26
2022-08-03T20:44:00.940Z,45.46
2022-08-03T20:46:38.546Z,45.57
2022-08-03T20:49:14.908Z,44.74
2022-08-03T20:51:49.744Z,44.21
2022-08-03T20:54:28.839Z,44.67
2022-08-03T20:56:58.169Z,44.55
2022-08-03T20:59:35.024Z,44.71
2022-08-03T21:02:11.813Z,44.35
2022-08-03T21:04:53.024Z,44.71
2022-08-03T21:07:23.597Z,44.57
2022-08-03T21:09:55.497Z,44.65
2022-08-03T21:12:29.171Z,44.02
2022-08-03T21:15:00.840Z,44.22
2022-08-03T21:20:14.031Z,43.82
2022-08-03T21:22:47.401Z,44.22
2022-08-03T21:25:17.616Z,44.03
2022-08-03T21:27:45.638Z,43.74
2022-08-03T21:30:15.409Z,44.23
2022-08-03T21:32:48.113Z,43.63
2022-08-03T21:35:17.696Z,43.94
2022-08-03T21:38:15.752Z,43.43
2022-08-03T21:40:47.556Z,43.74
2022-08-03T21:43:18.435Z,43.91
2022-08-03T21:45:51.759Z,43.80
2022-08-03T21:48:24.099Z,43.61
2022-08-03T21:50:59.956Z,43.98
2022-08-03T21:54:00.405Z,43.96
2022-08-03T21:56:28.425Z,43.64
2022-08-03T21:59:00.082Z,44.03
2022-08-03T22:01:29.556Z,43.65
2022-08-03T22:04:05.829Z,43.66
2022-08-03T22:06:36.515Z,43.87
2022-08-03T22:09:07.308Z,43.56
2022-08-03T22:11:37.557Z,43.88
2022-08-03T22:14:06.396Z,43.44
2022-08-03T22:16:35.649Z,43.63
2022-08-03T22:19:04.976Z,43.50
2022-08-03T22:21:36.236Z,43.44
2022-08-03T22:24:07.489Z,43.19
2022-08-03T22:26:36.680Z,43.82
2022-08-03T22:29:07.844Z,44.07
2022-08-03T22:31:57.372Z,44.29
2022-08-03T22:34:27.615Z,44.47
2022-08-03T22:37:00.348Z,44.67
2022-08-03T22:39:31.708Z,45.02
2022-08-03T22:42:00.449Z,44.85
2022-08-03T22:44:28.578Z,45.04
2022-08-03T22:46:57.822Z,44.96
2022-08-03T22:49:28.075Z,44.91
2022-08-03T22:51:57.209Z,44.94
2022-08-03T22:54:26.388Z,44.78
2022-08-03T22:56:59.602Z,44.81
2022-08-03T22:59:41.075Z,44.95
2022-08-03T23:02:20.307Z,45.00
2022-08-03T23:04:52.368Z,45.07
2022-08-03T23:07:26.137Z,44.75
2022-08-03T23:09:55.539Z,45.05
2022-08-03T23:12:26.221Z,44.68
2022-08-03T23:14:56.281Z,45.00
2022-08-03T23:17:25.439Z,44.81
2022-08-03T23:19:55.004Z,44.81
2022-08-03T23:22:29.657Z,44.61
2022-08-03T23:25:03.808Z,44.55
2022-08-03T23:27:34.623Z,44.37
2022-08-03T23:30:03.906Z,44.54
2022-08-03T23:32:33.190Z,44.65
2022-08-03T23:35:20.688Z,44.31
2022-08-03T23:38:04.022Z,44.55
2022-08-03T23:40:38.770Z,44.46
2022-08-03T23:43:14.067Z,44.29
2022-08-03T23:45:48.231Z,44.26
2022-08-03T23:48:17.491Z,44.50
2022-08-03T23:50:47.157Z,44.64
2022-08-03T23:53:19.501Z,44.92
2022-08-03T23:55:57.073Z,44.92
2022-08-03T23:58:35.457Z,44.83
